This demonstration page uses our WeatherBlox Daily Observations layout. Learn more.

39.92423, -83.80882

Hourly Observations for December 20, 2017

Temp ( °F °C ) Dew Point ( °F °C ) Humidity (%) Winds ( mph kmh ) Pressure ( in mb ) Visibility ( mi km ) Precip ( " mm )
12:56 am 00:56 Clear with Mist and Fog 40 4.4 38 3.3 93 93 WNW 8 13 30.06 1018 4 6.43736 0 0
1:56 am 01:56 Clear 39 3.9 36 2.2 89 89 WNW 7 11 30.07 1018 7 11.26538 0 0
2:56 am 02:56 Clear 37 2.8 33 0.6 86 86 WNW 7 11 30.08 1019 9 14.48406 0 0
3:56 am 03:56 Clear 36 2.2 31 -0.6 82 82 NW 7 11 30.07 1018 10 16.0934 0 0
4:56 am 04:56 Clear 33 0.6 28 -2.2 82 82 NNW 6 9 30.07 1018 10 16.0934 0 0
5:56 am 05:56 Clear 33 0.6 26 -3.3 75 75 NNW 5 7 30.09 1019 10 16.0934 0 0
6:56 am 06:56 Clear 33 0.6 25 -3.9 72 72 NNW 3 6 30.1 1019 10 16.0934 0 0
7:56 am 07:56 Sunny 33 0.6 24 -4.4 70 70 Calm 30.1 1019 10 16.0934 0 0
8:56 am 08:56 Sunny 33 0.6 25 -3.9 72 72 NNE 5 7 30.11 1020 10 16.0934 0 0
9:56 am 09:56 Sunny 33 0.6 27 -2.8 78 78 Calm 30.14 1021 10 16.0934 0 0
10:56 am 10:56 Sunny 35 1.7 28 -2.2 76 76 NE 7 11 30.12 1020 10 16.0934 0 0
11:56 am 11:56 Sunny 39 3.9 25 -3.9 57 57 Calm 30.1 1019 10 16.0934 0 0
12:56 pm 12:56 Sunny 42 5.6 23 -5 47 47 VRB 5 7 30.07 1018 10 16.0934 0 0
1:56 pm 13:56 Sunny 44 6.7 21 -6.1 40 40 NNE 5 7 30.05 1018 10 16.0934 0 0
3:56 pm 15:56 Sunny 43 6.1 22 -5.6 43 43 NE 7 11 30.05 1018 10 16.0934 0 0
4:56 pm 16:56 Sunny 39 3.9 21 -6.1 48 48 NE 6 9 30.07 1018 10 16.0934 0 0
5:56 pm 17:56 Clear 36 2.2 22 -5.6 57 57 NNE 8 13 30.09 1019 10 16.0934 0 0
6:56 pm 18:56 Clear 32 0 22 -5.6 66 66 ENE 7 11 30.1 1019 10 16.0934 0 0
7:56 pm 19:56 Clear 29 -1.7 23 -5 78 78 ENE 7 11 30.1 1019 10 16.0934 0 0
8:56 pm 20:56 Clear 28 -2.2 21 -6.1 75 75 NNE 9 15 30.1 1019 10 16.0934 0 0.0254
9:56 pm 21:56 Clear 26 -3.3 21 -6.1 81 81 ENE 7 11 30.11 1020 10 16.0934 0 0
10:56 pm 22:56 Cloudy 30 -1.1 24 -4.4 79 79 ENE 8 13 30.12 1020 10 16.0934 0 0
11:56 pm 23:56 Cloudy 30 -1.1 24 -4.4 79 79 ENE 7 11 30.11 1020 10 16.0934 0 0

Powered by AerisWeather